sensor_id;sensor_type;location;lat;lon;timestamp;P1;durP1;ratioP1;P2;durP2;ratioP2
23282;SDS011;11810;51.178;3.878;2023-02-26T00:01:42;14.65;;;4.18;;
23282;SDS011;11810;51.178;3.878;2023-02-26T00:04:08;10.57;;;3.85;;
23282;SDS011;11810;51.178;3.878;2023-02-26T00:06:35;11.05;;;3.92;;
23282;SDS011;11810;51.178;3.878;2023-02-26T00:09:03;14.10;;;4.45;;
23282;SDS011;11810;51.178;3.878;2023-02-26T00:11:30;14.57;;;4.05;;
23282;SDS011;11810;51.178;3.878;2023-02-26T00:13:57;17.63;;;4.78;;
23282;SDS011;11810;51.178;3.878;2023-02-26T00:16:30;13.73;;;3.78;;
23282;SDS011;11810;51.178;3.878;2023-02-26T00:18:59;16.63;;;4.20;;
23282;SDS011;11810;51.178;3.878;2023-02-26T00:21:27;16.95;;;4.13;;
23282;SDS011;11810;51.178;3.878;2023-02-26T00:23:54;11.02;;;4.40;;
23282;SDS011;11810;51.178;3.878;2023-02-26T00:26:20;12.35;;;3.83;;
23282;SDS011;11810;51.178;3.878;2023-02-26T00:28:48;21.45;;;4.85;;
23282;SDS011;11810;51.178;3.878;2023-02-26T00:31:14;11.43;;;3.92;;
23282;SDS011;11810;51.178;3.878;2023-02-26T00:33:41;12.68;;;3.67;;
23282;SDS011;11810;51.178;3.878;2023-02-26T00:36:32;8.93;;;3.60;;
23282;SDS011;11810;51.178;3.878;2023-02-26T00:42:21;8.73;;;3.10;;
23282;SDS011;11810;51.178;3.878;2023-02-26T00:44:47;19.23;;;3.33;;
23282;SDS011;11810;51.178;3.878;2023-02-26T00:50:24;8.82;;;3.15;;
23282;SDS011;11810;51.178;3.878;2023-02-26T00:52:53;12.60;;;3.53;;
23282;SDS011;11810;51.178;3.878;2023-02-26T00:55:28;9.75;;;3.28;;
23282;SDS011;11810;51.178;3.878;2023-02-26T00:57:55;13.68;;;3.65;;
23282;SDS011;11810;51.178;3.878;2023-02-26T01:00:21;13.98;;;3.45;;
23282;SDS011;11810;51.178;3.878;2023-02-26T01:02:47;11.65;;;3.70;;
23282;SDS011;11810;51.178;3.878;2023-02-26T01:05:14;15.23;;;4.10;;
23282;SDS011;11810;51.178;3.878;2023-02-26T01:10:15;12.98;;;4.18;;
23282;SDS011;11810;51.178;3.878;2023-02-26T01:12:41;16.05;;;3.80;;
23282;SDS011;11810;51.178;3.878;2023-02-26T01:15:08;14.63;;;3.75;;
23282;SDS011;11810;51.178;3.878;2023-02-26T01:20:20;9.10;;;3.80;;
23282;SDS011;11810;51.178;3.878;2023-02-26T01:27:26;7.25;;;3.17;;
23282;SDS011;11810;51.178;3.878;2023-02-26T01:29:52;9.00;;;3.58;;
23282;SDS011;11810;51.178;3.878;2023-02-26T01:32:30;14.63;;;3.78;;
23282;SDS011;11810;51.178;3.878;2023-02-26T01:35:31;12.25;;;3.42;;
23282;SDS011;11810;51.178;3.878;2023-02-26T01:43:21;15.07;;;3.05;;
23282;SDS011;11810;51.178;3.878;2023-02-26T01:49:01;17.35;;;4.18;;
23282;SDS011;11810;51.178;3.878;2023-02-26T01:51:42;7.15;;;2.80;;
23282;SDS011;11810;51.178;3.878;2023-02-26T01:54:17;7.47;;;2.50;;
23282;SDS011;11810;51.178;3.878;2023-02-26T01:57:09;14.13;;;2.97;;
23282;SDS011;11810;51.178;3.878;2023-02-26T01:59:42;6.57;;;2.67;;
23282;SDS011;11810;51.178;3.878;2023-02-26T02:02:11;11.60;;;2.95;;
23282;SDS011;11810;51.178;3.878;2023-02-26T02:04:40;11.75;;;2.90;;
23282;SDS011;11810;51.178;3.878;2023-02-26T02:07:08;10.07;;;2.78;;
23282;SDS011;11810;51.178;3.878;2023-02-26T02:09:35;11.38;;;2.80;;
23282;SDS011;11810;51.178;3.878;2023-02-26T02:31:32;7.65;;;2.42;;
23282;SDS011;11810;51.178;3.878;2023-02-26T02:38:31;13.55;;;2.78;;
23282;SDS011;11810;51.178;3.878;2023-02-26T02:41:10;8.15;;;2.97;;
23282;SDS011;11810;51.178;3.878;2023-02-26T02:43:49;11.02;;;2.50;;
23282;SDS011;11810;51.178;3.878;2023-02-26T02:46:27;15.15;;;2.50;;
23282;SDS011;11810;51.178;3.878;2023-02-26T02:49:03;6.97;;;2.30;;
23282;SDS011;11810;51.178;3.878;2023-02-26T02:53:47;10.50;;;2.22;;
23282;SDS011;11810;51.178;3.878;2023-02-26T02:56:23;10.13;;;2.40;;
23282;SDS011;11810;51.178;3.878;2023-02-26T02:59:00;13.10;;;3.28;;
23282;SDS011;11810;51.178;3.878;2023-02-26T03:01:38;7.80;;;1.90;;
23282;SDS011;11810;51.178;3.878;2023-02-26T03:06:39;8.93;;;2.08;;
23282;SDS011;11810;51.178;3.878;2023-02-26T03:09:07;9.02;;;2.70;;
23282;SDS011;11810;51.178;3.878;2023-02-26T03:11:34;6.80;;;2.17;;
23282;SDS011;11810;51.178;3.878;2023-02-26T03:14:01;8.27;;;2.20;;
23282;SDS011;11810;51.178;3.878;2023-02-26T03:19:48;10.05;;;1.98;;
23282;SDS011;11810;51.178;3.878;2023-02-26T03:22:33;11.30;;;2.10;;
23282;SDS011;11810;51.178;3.878;2023-02-26T03:28:17;11.85;;;2.30;;
23282;SDS011;11810;51.178;3.878;2023-02-26T03:34:07;7.30;;;2.30;;
23282;SDS011;11810;51.178;3.878;2023-02-26T03:38:50;9.25;;;2.05;;
23282;SDS011;11810;51.178;3.878;2023-02-26T03:41:43;8.13;;;2.00;;
23282;SDS011;11810;51.178;3.878;2023-02-26T03:44:46;4.20;;;1.80;;
23282;SDS011;11810;51.178;3.878;2023-02-26T03:47:23;5.90;;;2.05;;
23282;SDS011;11810;51.178;3.878;2023-02-26T03:53:55;5.40;;;1.80;;
23282;SDS011;11810;51.178;3.878;2023-02-26T03:56:44;7.38;;;1.90;;
23282;SDS011;11810;51.178;3.878;2023-02-26T03:59:12;7.88;;;1.88;;
23282;SDS011;11810;51.178;3.878;2023-02-26T04:01:42;6.88;;;1.70;;
23282;SDS011;11810;51.178;3.878;2023-02-26T04:05:42;2.90;;;1.65;;
23282;SDS011;11810;51.178;3.878;2023-02-26T04:08:13;4.70;;;1.98;;
23282;SDS011;11810;51.178;3.878;2023-02-26T04:10:40;4.40;;;1.45;;
23282;SDS011;11810;51.178;3.878;2023-02-26T04:13:10;8.32;;;1.92;;
23282;SDS011;11810;51.178;3.878;2023-02-26T04:18:47;6.10;;;1.92;;
23282;SDS011;11810;51.178;3.878;2023-02-26T04:21:14;8.60;;;2.00;;
23282;SDS011;11810;51.178;3.878;2023-02-26T04:23:43;6.88;;;1.98;;
23282;SDS011;11810;51.178;3.878;2023-02-26T04:26:09;8.60;;;1.95;;
23282;SDS011;11810;51.178;3.878;2023-02-26T04:28:35;7.28;;;1.85;;
23282;SDS011;11810;51.178;3.878;2023-02-26T04:31:02;6.90;;;1.92;;
23282;SDS011;11810;51.178;3.878;2023-02-26T04:33:29;7.18;;;2.10;;
23282;SDS011;11810;51.178;3.878;2023-02-26T04:35:55;10.00;;;2.20;;
23282;SDS011;11810;51.178;3.878;2023-02-26T04:38:22;6.22;;;1.80;;
23282;SDS011;11810;51.178;3.878;2023-02-26T04:40:48;5.43;;;1.83;;
23282;SDS011;11810;51.178;3.878;2023-02-26T04:43:15;16.05;;;2.45;;
23282;SDS011;11810;51.178;3.878;2023-02-26T04:45:44;8.88;;;1.95;;
23282;SDS011;11810;51.178;3.878;2023-02-26T04:48:11;6.45;;;1.90;;
23282;SDS011;11810;51.178;3.878;2023-02-26T04:51:51;8.18;;;1.80;;
23282;SDS011;11810;51.178;3.878;2023-02-26T04:54:17;8.57;;;2.10;;
23282;SDS011;11810;51.178;3.878;2023-02-26T04:56:43;10.02;;;1.98;;
23282;SDS011;11810;51.178;3.878;2023-02-26T04:59:52;6.78;;;1.70;;
23282;SDS011;11810;51.178;3.878;2023-02-26T05:05:34;9.70;;;1.60;;
23282;SDS011;11810;51.178;3.878;2023-02-26T05:08:00;11.13;;;1.90;;
23282;SDS011;11810;51.178;3.878;2023-02-26T05:10:26;9.65;;;1.92;;
23282;SDS011;11810;51.178;3.878;2023-02-26T05:12:52;10.55;;;1.77;;
23282;SDS011;11810;51.178;3.878;2023-02-26T05:15:18;8.85;;;1.60;;
23282;SDS011;11810;51.178;3.878;2023-02-26T05:17:45;12.38;;;2.42;;
23282;SDS011;11810;51.178;3.878;2023-02-26T05:20:11;5.55;;;1.67;;
23282;SDS011;11810;51.178;3.878;2023-02-26T05:22:37;9.43;;;2.20;;
23282;SDS011;11810;51.178;3.878;2023-02-26T05:25:04;9.35;;;1.83;;
23282;SDS011;11810;51.178;3.878;2023-02-26T05:27:32;6.00;;;1.65;;
23282;SDS011;11810;51.178;3.878;2023-02-26T05:29:58;3.50;;;1.45;;
23282;SDS011;11810;51.178;3.878;2023-02-26T05:32:24;6.65;;;1.67;;
23282;SDS011;11810;51.178;3.878;2023-02-26T05:34:51;3.78;;;1.63;;
23282;SDS011;11810;51.178;3.878;2023-02-26T05:37:17;4.32;;;1.77;;
23282;SDS011;11810;51.178;3.878;2023-02-26T05:39:42;9.43;;;2.00;;
23282;SDS011;11810;51.178;3.878;2023-02-26T05:46:58;4.85;;;2.22;;
23282;SDS011;11810;51.178;3.878;2023-02-26T05:49:24;6.22;;;1.73;;
23282;SDS011;11810;51.178;3.878;2023-02-26T05:51:50;8.52;;;1.60;;
23282;SDS011;11810;51.178;3.878;2023-02-26T05:54:16;7.93;;;1.75;;
23282;SDS011;11810;51.178;3.878;2023-02-26T05:56:41;7.50;;;1.60;;
23282;SDS011;11810;51.178;3.878;2023-02-26T05:59:08;6.20;;;2.22;;
23282;SDS011;11810;51.178;3.878;2023-02-26T06:01:34;5.90;;;2.05;;
23282;SDS011;11810;51.178;3.878;2023-02-26T06:04:01;3.92;;;1.60;;
23282;SDS011;11810;51.178;3.878;2023-02-26T06:07:38;8.63;;;2.08;;
23282;SDS011;11810;51.178;3.878;2023-02-26T06:10:04;4.40;;;1.52;;
23282;SDS011;11810;51.178;3.878;2023-02-26T06:12:33;11.48;;;1.85;;
23282;SDS011;11810;51.178;3.878;2023-02-26T06:14:59;7.05;;;2.28;;
23282;SDS011;11810;51.178;3.878;2023-02-26T06:22:03;9.15;;;1.65;;
23282;SDS011;11810;51.178;3.878;2023-02-26T06:24:28;7.00;;;1.80;;
23282;SDS011;11810;51.178;3.878;2023-02-26T06:26:54;8.85;;;1.98;;
23282;SDS011;11810;51.178;3.878;2023-02-26T06:29:20;6.03;;;2.25;;
23282;SDS011;11810;51.178;3.878;2023-02-26T06:31:47;7.05;;;1.90;;
23282;SDS011;11810;51.178;3.878;2023-02-26T06:36:06;6.78;;;2.00;;
23282;SDS011;11810;51.178;3.878;2023-02-26T06:40:05;4.70;;;1.40;;
23282;SDS011;11810;51.178;3.878;2023-02-26T06:43:37;5.97;;;1.50;;
23282;SDS011;11810;51.178;3.878;2023-02-26T06:46:04;4.07;;;1.38;;
23282;SDS011;11810;51.178;3.878;2023-02-26T06:48:30;6.68;;;1.58;;
23282;SDS011;11810;51.178;3.878;2023-02-26T06:50:57;7.70;;;1.98;;
23282;SDS011;11810;51.178;3.878;2023-02-26T06:53:23;5.47;;;1.98;;
23282;SDS011;11810;51.178;3.878;2023-02-26T06:55:49;4.63;;;1.85;;
23282;SDS011;11810;51.178;3.878;2023-02-26T07:00:07;6.25;;;1.95;;
23282;SDS011;11810;51.178;3.878;2023-02-26T07:02:34;3.33;;;1.67;;
23282;SDS011;11810;51.178;3.878;2023-02-26T07:05:01;7.75;;;1.60;;
23282;SDS011;11810;51.178;3.878;2023-02-26T07:07:38;8.10;;;1.70;;
23282;SDS011;11810;51.178;3.878;2023-02-26T07:10:04;9.57;;;1.75;;
23282;SDS011;11810;51.178;3.878;2023-02-26T07:12:30;6.80;;;1.80;;
23282;SDS011;11810;51.178;3.878;2023-02-26T07:14:56;5.85;;;1.67;;
23282;SDS011;11810;51.178;3.878;2023-02-26T07:17:22;6.93;;;1.70;;
23282;SDS011;11810;51.178;3.878;2023-02-26T07:19:49;5.20;;;2.00;;
23282;SDS011;11810;51.178;3.878;2023-02-26T07:22:17;5.20;;;2.22;;
23282;SDS011;11810;51.178;3.878;2023-02-26T07:24:43;7.82;;;1.77;;
23282;SDS011;11810;51.178;3.878;2023-02-26T07:27:10;5.90;;;1.67;;
23282;SDS011;11810;51.178;3.878;2023-02-26T07:31:38;2.70;;;1.60;;
23282;SDS011;11810;51.178;3.878;2023-02-26T07:34:04;3.33;;;1.50;;
23282;SDS011;11810;51.178;3.878;2023-02-26T07:36:31;4.70;;;1.60;;
23282;SDS011;11810;51.178;3.878;2023-02-26T07:38:56;7.50;;;1.70;;
23282;SDS011;11810;51.178;3.878;2023-02-26T07:41:22;5.55;;;1.83;;
23282;SDS011;11810;51.178;3.878;2023-02-26T07:43:48;10.32;;;1.92;;
23282;SDS011;11810;51.178;3.878;2023-02-26T07:46:15;6.50;;;1.60;;
23282;SDS011;11810;51.178;3.878;2023-02-26T07:48:40;4.22;;;1.60;;
23282;SDS011;11810;51.178;3.878;2023-02-26T07:51:07;4.85;;;1.50;;
23282;SDS011;11810;51.178;3.878;2023-02-26T07:53:35;3.33;;;1.40;;
23282;SDS011;11810;51.178;3.878;2023-02-26T07:56:01;10.88;;;1.80;;
23282;SDS011;11810;51.178;3.878;2023-02-26T07:58:27;4.28;;;1.52;;
23282;SDS011;11810;51.178;3.878;2023-02-26T08:00:53;8.73;;;1.60;;
23282;SDS011;11810;51.178;3.878;2023-02-26T08:05:16;5.07;;;1.35;;
23282;SDS011;11810;51.178;3.878;2023-02-26T08:07:43;5.72;;;1.65;;
23282;SDS011;11810;51.178;3.878;2023-02-26T08:10:09;7.57;;;1.20;;
23282;SDS011;11810;51.178;3.878;2023-02-26T08:12:35;5.82;;;1.63;;
23282;SDS011;11810;51.178;3.878;2023-02-26T08:15:02;7.70;;;1.65;;
23282;SDS011;11810;51.178;3.878;2023-02-26T08:18:17;3.42;;;0.90;;
23282;SDS011;11810;51.178;3.878;2023-02-26T08:22:19;4.30;;;1.20;;
23282;SDS011;11810;51.178;3.878;2023-02-26T08:24:45;4.97;;;1.13;;
23282;SDS011;11810;51.178;3.878;2023-02-26T08:27:11;5.68;;;1.60;;
23282;SDS011;11810;51.178;3.878;2023-02-26T08:29:37;4.85;;;1.42;;
23282;SDS011;11810;51.178;3.878;2023-02-26T08:32:03;4.47;;;1.42;;
23282;SDS011;11810;51.178;3.878;2023-02-26T08:34:28;3.90;;;1.25;;
23282;SDS011;11810;51.178;3.878;2023-02-26T08:36:54;4.20;;;1.13;;
23282;SDS011;11810;51.178;3.878;2023-02-26T08:39:20;5.75;;;1.58;;
23282;SDS011;11810;51.178;3.878;2023-02-26T08:41:46;3.97;;;1.58;;
23282;SDS011;11810;51.178;3.878;2023-02-26T08:44:12;2.88;;;1.13;;
23282;SDS011;11810;51.178;3.878;2023-02-26T08:48:23;5.18;;;1.40;;
23282;SDS011;11810;51.178;3.878;2023-02-26T08:50:49;6.00;;;1.10;;
23282;SDS011;11810;51.178;3.878;2023-02-26T08:53:15;3.65;;;1.27;;
23282;SDS011;11810;51.178;3.878;2023-02-26T08:55:41;3.47;;;1.20;;
23282;SDS011;11810;51.178;3.878;2023-02-26T08:58:09;4.20;;;1.27;;
23282;SDS011;11810;51.178;3.878;2023-02-26T09:00:35;3.67;;;1.20;;
23282;SDS011;11810;51.178;3.878;2023-02-26T09:03:01;4.05;;;1.00;;
23282;SDS011;11810;51.178;3.878;2023-02-26T09:05:27;8.50;;;1.30;;
23282;SDS011;11810;51.178;3.878;2023-02-26T09:07:53;4.97;;;1.30;;
23282;SDS011;11810;51.178;3.878;2023-02-26T09:10:18;2.58;;;0.80;;
23282;SDS011;11810;51.178;3.878;2023-02-26T09:12:44;1.77;;;0.85;;
23282;SDS011;11810;51.178;3.878;2023-02-26T09:15:11;4.18;;;1.40;;
23282;SDS011;11810;51.178;3.878;2023-02-26T09:17:38;5.22;;;1.60;;
23282;SDS011;11810;51.178;3.878;2023-02-26T09:20:04;3.42;;;1.20;;
23282;SDS011;11810;51.178;3.878;2023-02-26T09:22:31;5.72;;;1.00;;
23282;SDS011;11810;51.178;3.878;2023-02-26T09:24:57;2.95;;;0.90;;
23282;SDS011;11810;51.178;3.878;2023-02-26T09:27:23;2.33;;;0.98;;
23282;SDS011;11810;51.178;3.878;2023-02-26T09:29:49;3.17;;;1.10;;
23282;SDS011;11810;51.178;3.878;2023-02-26T09:32:15;1.73;;;0.70;;
23282;SDS011;11810;51.178;3.878;2023-02-26T09:34:41;2.10;;;0.98;;
23282;SDS011;11810;51.178;3.878;2023-02-26T09:37:07;3.28;;;0.90;;
23282;SDS011;11810;51.178;3.878;2023-02-26T09:39:34;2.88;;;0.80;;
23282;SDS011;11810;51.178;3.878;2023-02-26T09:42:24;4.28;;;1.38;;
23282;SDS011;11810;51.178;3.878;2023-02-26T09:45:11;2.83;;;1.00;;
23282;SDS011;11810;51.178;3.878;2023-02-26T09:47:47;1.88;;;1.15;;
23282;SDS011;11810;51.178;3.878;2023-02-26T09:57:57;3.22;;;1.25;;
23282;SDS011;11810;51.178;3.878;2023-02-26T10:00:34;6.65;;;1.30;;
23282;SDS011;11810;51.178;3.878;2023-02-26T10:14:48;4.28;;;1.08;;
23282;SDS011;11810;51.178;3.878;2023-02-26T10:25:43;2.38;;;1.00;;
23282;SDS011;11810;51.178;3.878;2023-02-26T10:30:55;3.72;;;1.00;;
23282;SDS011;11810;51.178;3.878;2023-02-26T10:36:35;4.57;;;0.90;;
23282;SDS011;11810;51.178;3.878;2023-02-26T10:39:31;2.72;;;1.05;;
23282;SDS011;11810;51.178;3.878;2023-02-26T10:42:20;2.35;;;1.38;;
23282;SDS011;11810;51.178;3.878;2023-02-26T10:51:16;3.70;;;0.88;;
23282;SDS011;11810;51.178;3.878;2023-02-26T10:54:26;4.15;;;1.08;;
23282;SDS011;11810;51.178;3.878;2023-02-26T10:56:41;2.60;;;0.90;;
23282;SDS011;11810;51.178;3.878;2023-02-26T10:59:07;3.15;;;0.80;;
23282;SDS011;11810;51.178;3.878;2023-02-26T11:01:33;2.80;;;1.10;;
23282;SDS011;11810;51.178;3.878;2023-02-26T11:04:00;6.25;;;1.02;;
23282;SDS011;11810;51.178;3.878;2023-02-26T11:06:35;2.58;;;0.77;;
23282;SDS011;11810;51.178;3.878;2023-02-26T11:09:32;1.52;;;0.85;;
23282;SDS011;11810;51.178;3.878;2023-02-26T11:12:12;3.25;;;1.10;;
23282;SDS011;11810;51.178;3.878;2023-02-26T11:14:42;3.42;;;1.17;;
23282;SDS011;11810;51.178;3.878;2023-02-26T11:17:25;1.75;;;1.00;;
23282;SDS011;11810;51.178;3.878;2023-02-26T11:19:58;1.88;;;0.90;;
23282;SDS011;11810;51.178;3.878;2023-02-26T11:22:31;2.80;;;1.00;;
23282;SDS011;11810;51.178;3.878;2023-02-26T11:25:00;3.72;;;1.27;;
23282;SDS011;11810;51.178;3.878;2023-02-26T11:27:34;3.70;;;1.35;;
23282;SDS011;11810;51.178;3.878;2023-02-26T11:33:14;5.07;;;1.05;;
23282;SDS011;11810;51.178;3.878;2023-02-26T11:35:45;3.47;;;1.20;;
23282;SDS011;11810;51.178;3.878;2023-02-26T11:38:17;4.85;;;1.30;;
23282;SDS011;11810;51.178;3.878;2023-02-26T11:40:47;2.85;;;1.63;;
23282;SDS011;11810;51.178;3.878;2023-02-26T11:43:18;2.88;;;1.02;;
23282;SDS011;11810;51.178;3.878;2023-02-26T11:45:58;3.28;;;0.90;;
23282;SDS011;11810;51.178;3.878;2023-02-26T11:48:27;4.22;;;1.30;;
23282;SDS011;11810;51.178;3.878;2023-02-26T11:50:59;6.32;;;1.33;;
23282;SDS011;11810;51.178;3.878;2023-02-26T11:53:32;2.60;;;1.20;;
23282;SDS011;11810;51.178;3.878;2023-02-26T11:56:13;2.63;;;0.82;;
23282;SDS011;11810;51.178;3.878;2023-02-26T11:58:44;2.00;;;1.00;;
23282;SDS011;11810;51.178;3.878;2023-02-26T12:01:11;1.55;;;0.90;;
23282;SDS011;11810;51.178;3.878;2023-02-26T12:03:42;4.30;;;1.08;;
23282;SDS011;11810;51.178;3.878;2023-02-26T12:06:15;3.38;;;0.93;;
23282;SDS011;11810;51.178;3.878;2023-02-26T12:08:49;3.80;;;1.20;;
23282;SDS011;11810;51.178;3.878;2023-02-26T12:17:13;5.00;;;1.02;;
23282;SDS011;11810;51.178;3.878;2023-02-26T12:20:06;2.63;;;1.23;;
23282;SDS011;11810;51.178;3.878;2023-02-26T12:28:38;6.57;;;1.27;;
23282;SDS011;11810;51.178;3.878;2023-02-26T12:31:21;4.03;;;1.27;;
23282;SDS011;11810;51.178;3.878;2023-02-26T12:34:09;1.88;;;0.90;;
23282;SDS011;11810;51.178;3.878;2023-02-26T13:15:36;1.35;;;0.77;;
23282;SDS011;11810;51.178;3.878;2023-02-26T13:20:54;4.00;;;0.95;;
23282;SDS011;11810;51.178;3.878;2023-02-26T13:23:29;2.80;;;1.10;;
23282;SDS011;11810;51.178;3.878;2023-02-26T13:26:07;2.17;;;1.20;;
23282;SDS011;11810;51.178;3.878;2023-02-26T13:28:47;8.95;;;1.48;;
23282;SDS011;11810;51.178;3.878;2023-02-26T13:31:40;2.80;;;1.02;;
23282;SDS011;11810;51.178;3.878;2023-02-26T13:36:55;2.58;;;1.00;;
23282;SDS011;11810;51.178;3.878;2023-02-26T13:44:46;2.70;;;1.17;;
23282;SDS011;11810;51.178;3.878;2023-02-26T13:47:20;1.95;;;0.93;;
23282;SDS011;11810;51.178;3.878;2023-02-26T13:56:14;8.02;;;1.10;;
23282;SDS011;11810;51.178;3.878;2023-02-26T13:59:34;1.70;;;0.95;;
23282;SDS011;11810;51.178;3.878;2023-02-26T14:09:36;3.78;;;1.00;;
23282;SDS011;11810;51.178;3.878;2023-02-26T14:12:33;2.97;;;1.10;;
23282;SDS011;11810;51.178;3.878;2023-02-26T14:17:48;3.17;;;1.10;;
23282;SDS011;11810;51.178;3.878;2023-02-26T14:20:22;5.03;;;1.00;;
23282;SDS011;11810;51.178;3.878;2023-02-26T14:22:52;2.80;;;1.10;;
23282;SDS011;11810;51.178;3.878;2023-02-26T14:25:20;2.42;;;1.20;;
23282;SDS011;11810;51.178;3.878;2023-02-26T14:30:50;2.15;;;1.08;;
23282;SDS011;11810;51.178;3.878;2023-02-26T14:33:18;1.27;;;0.80;;
23282;SDS011;11810;51.178;3.878;2023-02-26T14:35:51;3.58;;;1.10;;
23282;SDS011;11810;51.178;3.878;2023-02-26T14:38:25;3.10;;;1.25;;
23282;SDS011;11810;51.178;3.878;2023-02-26T14:40:56;3.55;;;1.08;;
23282;SDS011;11810;51.178;3.878;2023-02-26T14:43:36;3.72;;;0.90;;
23282;SDS011;11810;51.178;3.878;2023-02-26T14:46:05;5.10;;;1.27;;
23282;SDS011;11810;51.178;3.878;2023-02-26T14:48:32;2.47;;;1.13;;
23282;SDS011;11810;51.178;3.878;2023-02-26T14:59:40;2.50;;;1.38;;
23282;SDS011;11810;51.178;3.878;2023-02-26T15:21:02;3.20;;;1.15;;
23282;SDS011;11810;51.178;3.878;2023-02-26T15:23:49;2.42;;;0.95;;
23282;SDS011;11810;51.178;3.878;2023-02-26T15:28:57;2.30;;;1.02;;
23282;SDS011;11810;51.178;3.878;2023-02-26T15:31:30;1.83;;;1.00;;
23282;SDS011;11810;51.178;3.878;2023-02-26T15:34:11;3.83;;;1.20;;
23282;SDS011;11810;51.178;3.878;2023-02-26T15:36:42;3.58;;;1.20;;
23282;SDS011;11810;51.178;3.878;2023-02-26T15:39:12;2.30;;;0.90;;
23282;SDS011;11810;51.178;3.878;2023-02-26T15:41:41;1.30;;;0.80;;
23282;SDS011;11810;51.178;3.878;2023-02-26T15:44:13;4.03;;;1.20;;
23282;SDS011;11810;51.178;3.878;2023-02-26T15:46:43;2.35;;;0.90;;
23282;SDS011;11810;51.178;3.878;2023-02-26T15:49:33;2.88;;;0.98;;
23282;SDS011;11810;51.178;3.878;2023-02-26T15:52:00;1.83;;;0.90;;
23282;SDS011;11810;51.178;3.878;2023-02-26T15:54:32;3.03;;;0.93;;
23282;SDS011;11810;51.178;3.878;2023-02-26T15:57:07;5.95;;;1.20;;
23282;SDS011;11810;51.178;3.878;2023-02-26T15:59:36;4.28;;;1.08;;
23282;SDS011;11810;51.178;3.878;2023-02-26T16:02:14;4.47;;;1.05;;
23282;SDS011;11810;51.178;3.878;2023-02-26T16:04:44;2.65;;;1.23;;
23282;SDS011;11810;51.178;3.878;2023-02-26T16:07:10;2.47;;;1.10;;
23282;SDS011;11810;51.178;3.878;2023-02-26T16:09:38;2.50;;;1.30;;
23282;SDS011;11810;51.178;3.878;2023-02-26T16:12:08;3.72;;;1.00;;
23282;SDS011;11810;51.178;3.878;2023-02-26T16:14:37;9.93;;;1.35;;
23282;SDS011;11810;51.178;3.878;2023-02-26T16:17:07;2.78;;;1.02;;
23282;SDS011;11810;51.178;3.878;2023-02-26T16:19:39;8.10;;;1.55;;
23282;SDS011;11810;51.178;3.878;2023-02-26T16:24:45;1.60;;;1.30;;
23282;SDS011;11810;51.178;3.878;2023-02-26T16:27:15;4.72;;;1.40;;
23282;SDS011;11810;51.178;3.878;2023-02-26T16:29:44;2.00;;;1.17;;
23282;SDS011;11810;51.178;3.878;2023-02-26T16:35:22;4.45;;;1.50;;
23282;SDS011;11810;51.178;3.878;2023-02-26T16:37:52;6.30;;;1.27;;
23282;SDS011;11810;51.178;3.878;2023-02-26T16:40:24;6.10;;;1.30;;
23282;SDS011;11810;51.178;3.878;2023-02-26T16:43:04;5.32;;;1.60;;
23282;SDS011;11810;51.178;3.878;2023-02-26T16:45:55;4.90;;;1.73;;
23282;SDS011;11810;51.178;3.878;2023-02-26T16:48:25;3.17;;;1.27;;
23282;SDS011;11810;51.178;3.878;2023-02-26T16:51:14;5.63;;;2.10;;
23282;SDS011;11810;51.178;3.878;2023-02-26T16:53:44;3.72;;;1.30;;
23282;SDS011;11810;51.178;3.878;2023-02-26T16:56:18;4.47;;;1.17;;
23282;SDS011;11810;51.178;3.878;2023-02-26T16:58:51;6.78;;;1.50;;
23282;SDS011;11810;51.178;3.878;2023-02-26T17:01:33;2.67;;;1.60;;
23282;SDS011;11810;51.178;3.878;2023-02-26T17:04:01;1.52;;;1.25;;
23282;SDS011;11810;51.178;3.878;2023-02-26T17:06:29;3.35;;;1.50;;
23282;SDS011;11810;51.178;3.878;2023-02-26T17:08:56;8.32;;;1.30;;
23282;SDS011;11810;51.178;3.878;2023-02-26T17:11:27;4.18;;;1.85;;
23282;SDS011;11810;51.178;3.878;2023-02-26T17:16:51;4.95;;;2.30;;
23282;SDS011;11810;51.178;3.878;2023-02-26T17:19:18;3.92;;;1.88;;
23282;SDS011;11810;51.178;3.878;2023-02-26T17:21:48;4.90;;;2.50;;
23282;SDS011;11810;51.178;3.878;2023-02-26T17:24:19;2.83;;;1.58;;
23282;SDS011;11810;51.178;3.878;2023-02-26T17:26:50;6.97;;;1.75;;
23282;SDS011;11810;51.178;3.878;2023-02-26T17:29:18;5.65;;;1.73;;
23282;SDS011;11810;51.178;3.878;2023-02-26T17:32:04;4.20;;;1.60;;
23282;SDS011;11810;51.178;3.878;2023-02-26T17:34:31;5.35;;;1.35;;
23282;SDS011;11810;51.178;3.878;2023-02-26T17:36:57;3.80;;;1.38;;
23282;SDS011;11810;51.178;3.878;2023-02-26T17:39:29;13.10;;;1.60;;
23282;SDS011;11810;51.178;3.878;2023-02-26T17:41:56;3.97;;;1.30;;
23282;SDS011;11810;51.178;3.878;2023-02-26T17:44:22;3.90;;;1.80;;
23282;SDS011;11810;51.178;3.878;2023-02-26T17:48:31;5.47;;;1.30;;
23282;SDS011;11810;51.178;3.878;2023-02-26T17:50:59;4.72;;;1.35;;
23282;SDS011;11810;51.178;3.878;2023-02-26T17:53:25;4.57;;;1.75;;
23282;SDS011;11810;51.178;3.878;2023-02-26T17:55:58;11.70;;;1.70;;
23282;SDS011;11810;51.178;3.878;2023-02-26T17:58:28;4.93;;;1.60;;
23282;SDS011;11810;51.178;3.878;2023-02-26T18:00:57;5.90;;;2.15;;
23282;SDS011;11810;51.178;3.878;2023-02-26T18:03:24;5.32;;;1.60;;
23282;SDS011;11810;51.178;3.878;2023-02-26T18:05:50;5.57;;;1.42;;
23282;SDS011;11810;51.178;3.878;2023-02-26T18:08:31;3.60;;;1.60;;
23282;SDS011;11810;51.178;3.878;2023-02-26T18:10:59;5.10;;;1.65;;
23282;SDS011;11810;51.178;3.878;2023-02-26T18:13:26;3.88;;;1.60;;
23282;SDS011;11810;51.178;3.878;2023-02-26T18:15:53;7.13;;;1.92;;
23282;SDS011;11810;51.178;3.878;2023-02-26T18:18:20;3.80;;;1.90;;
23282;SDS011;11810;51.178;3.878;2023-02-26T18:20:47;4.75;;;2.05;;
23282;SDS011;11810;51.178;3.878;2023-02-26T18:23:14;6.22;;;1.90;;
23282;SDS011;11810;51.178;3.878;2023-02-26T18:25:41;3.78;;;1.67;;
23282;SDS011;11810;51.178;3.878;2023-02-26T18:28:12;6.38;;;1.98;;
23282;SDS011;11810;51.178;3.878;2023-02-26T18:32:35;10.60;;;1.98;;
23282;SDS011;11810;51.178;3.878;2023-02-26T18:35:01;5.30;;;1.58;;
23282;SDS011;11810;51.178;3.878;2023-02-26T18:37:29;7.10;;;1.85;;
23282;SDS011;11810;51.178;3.878;2023-02-26T18:39:55;8.02;;;1.83;;
23282;SDS011;11810;51.178;3.878;2023-02-26T18:42:25;3.60;;;1.30;;
23282;SDS011;11810;51.178;3.878;2023-02-26T18:44:52;4.85;;;1.60;;
23282;SDS011;11810;51.178;3.878;2023-02-26T18:47:19;5.75;;;1.52;;
23282;SDS011;11810;51.178;3.878;2023-02-26T18:50:38;5.22;;;1.50;;
23282;SDS011;11810;51.178;3.878;2023-02-26T18:53:04;3.63;;;1.48;;
23282;SDS011;11810;51.178;3.878;2023-02-26T18:55:30;5.10;;;1.63;;
23282;SDS011;11810;51.178;3.878;2023-02-26T18:57:56;5.55;;;1.50;;
23282;SDS011;11810;51.178;3.878;2023-02-26T19:00:39;5.38;;;1.50;;
23282;SDS011;11810;51.178;3.878;2023-02-26T19:03:05;7.38;;;1.80;;
23282;SDS011;11810;51.178;3.878;2023-02-26T19:05:33;4.80;;;1.73;;
23282;SDS011;11810;51.178;3.878;2023-02-26T19:07:59;3.60;;;1.70;;
23282;SDS011;11810;51.178;3.878;2023-02-26T19:10:25;6.75;;;1.85;;
23282;SDS011;11810;51.178;3.878;2023-02-26T19:13:40;6.53;;;1.70;;
23282;SDS011;11810;51.178;3.878;2023-02-26T19:16:06;7.25;;;1.48;;
23282;SDS011;11810;51.178;3.878;2023-02-26T19:18:32;7.70;;;1.55;;
23282;SDS011;11810;51.178;3.878;2023-02-26T19:20:58;6.38;;;1.67;;
23282;SDS011;11810;51.178;3.878;2023-02-26T19:23:26;3.63;;;1.50;;
23282;SDS011;11810;51.178;3.878;2023-02-26T19:25:52;8.88;;;2.15;;
23282;SDS011;11810;51.178;3.878;2023-02-26T19:28:18;6.72;;;1.63;;
23282;SDS011;11810;51.178;3.878;2023-02-26T19:30:44;5.40;;;1.60;;
23282;SDS011;11810;51.178;3.878;2023-02-26T19:33:10;3.70;;;1.70;;
23282;SDS011;11810;51.178;3.878;2023-02-26T19:35:36;8.82;;;1.70;;
23282;SDS011;11810;51.178;3.878;2023-02-26T19:38:03;3.47;;;1.73;;